Time;durP1;ratioP1;P1;durP2;ratioP2;P2;SDS_P1;SDS_P2;PMS_P1;PMS_P2;Temp;Humidity;BMP_temperature;BMP_pressure;BME280_temperature;BME280_humidity;BME280_pressure;Samples;Min_cycle;Max_cycle;Signal;HPM_P1;HPM_P2
2022/11/23 00:01:12;;;;;;;1003.63;230.47;;;7.00;99.90;;;;;;5066395;28;20209;-52
2022/11/23 00:03:40;;;;;;;1536.37;254.23;;;7.00;99.90;;;;;;5068968;28;20899;-52
2022/11/23 00:06:10;;;;;;;1347.73;257.87;;;7.00;99.90;;;;;;5076413;28;20747;-52
2022/11/23 00:08:38;;;;;;;514.30;115.23;;;7.00;99.90;;;;;;5078467;28;20201;-52
2022/11/23 00:11:06;;;;;;;321.00;73.27;;;7.00;99.90;;;;;;5088082;28;20219;-52
2022/11/23 00:13:35;;;;;;;1999.73;353.40;;;7.00;99.90;;;;;;5089602;28;20732;-52
2022/11/23 00:16:05;;;;;;;836.27;142.23;;;6.90;99.90;;;;;;5089754;28;20319;-51
2022/11/23 00:18:34;;;;;;;610.43;155.57;;;6.90;99.90;;;;;;5087161;28;20227;-52
2022/11/23 00:21:06;;;;;;;1009.47;184.33;;;7.00;99.90;;;;;;5088964;28;20243;-52
2022/11/23 00:23:37;;;;;;;248.77;68.77;;;6.90;99.90;;;;;;5080137;28;20705;-52
2022/11/23 00:26:06;;;;;;;1094.47;169.37;;;6.90;99.90;;;;;;5089575;28;20262;-51
2022/11/23 00:28:37;;;;;;;735.10;170.80;;;7.00;99.90;;;;;;5082216;28;20279;-53
2022/11/23 00:31:05;;;;;;;909.93;167.30;;;7.00;99.90;;;;;;5088124;28;20297;-52
2022/11/23 00:33:34;;;;;;;997.63;198.57;;;7.00;99.90;;;;;;5089252;28;20287;-53
2022/11/23 00:36:04;;;;;;;1053.13;175.40;;;6.90;99.90;;;;;;5083962;28;20791;-53
2022/11/23 00:38:32;;;;;;;1689.53;286.30;;;6.90;99.90;;;;;;5089958;28;20216;-53
2022/11/23 00:41:03;;;;;;;1999.90;374.07;;;6.90;99.90;;;;;;5089146;28;20287;-52
2022/11/23 00:43:32;;;;;;;1066.90;246.77;;;6.90;99.90;;;;;;5079216;28;20288;-51
2022/11/23 00:46:09;;;;;;;1999.90;575.90;;;6.90;99.90;;;;;;5089813;28;20307;-52
2022/11/23 00:48:37;;;;;;;212.00;61.57;;;6.90;99.90;;;;;;5089373;28;20208;-53
2022/11/23 00:51:07;;;;;;;1378.60;257.97;;;6.90;99.90;;;;;;5082625;28;20292;-52
2022/11/23 00:53:36;;;;;;;311.70;56.93;;;6.90;99.90;;;;;;5084891;28;20222;-51
2022/11/23 00:56:05;;;;;;;830.20;160.27;;;6.90;99.90;;;;;;5089040;28;20229;-52
2022/11/23 00:58:36;;;;;;;1892.10;340.90;;;6.90;99.90;;;;;;5089272;28;20307;-53
2022/11/23 01:01:06;;;;;;;404.47;110.00;;;6.90;99.90;;;;;;5088479;28;20755;-53
2022/11/23 01:03:35;;;;;;;592.63;132.50;;;6.90;99.90;;;;;;5082665;28;20266;-52
2022/11/23 01:06:05;;;;;;;1514.80;278.50;;;6.90;99.90;;;;;;5085395;28;20236;-52
2022/11/23 01:08:33;;;;;;;1168.37;230.20;;;6.90;99.90;;;;;;5089815;28;20295;-53
2022/11/23 01:11:03;;;;;;;1999.90;383.60;;;6.80;99.90;;;;;;5089048;28;20200;-52
2022/11/23 01:13:33;;;;;;;1938.30;344.93;;;6.80;99.90;;;;;;5089238;28;20207;-53
2022/11/23 01:16:01;;;;;;;1069.83;199.97;;;6.90;99.90;;;;;;5089134;28;20254;-53
2022/11/23 01:18:29;;;;;;;866.80;139.10;;;6.90;99.90;;;;;;5088789;28;20218;-53
2022/11/23 01:20:57;;;;;;;1040.87;195.67;;;6.90;99.90;;;;;;5073894;28;20671;-53
2022/11/23 01:23:28;;;;;;;76.87;37.23;;;6.90;99.90;;;;;;5088872;28;20291;-52
2022/11/23 01:25:56;;;;;;;1034.23;188.07;;;6.90;99.90;;;;;;5088280;28;20250;-53
2022/11/23 01:28:24;;;;;;;538.27;117.80;;;7.00;99.90;;;;;;5088443;28;20669;-53
2022/11/23 01:30:54;;;;;;;1210.97;201.83;;;7.00;99.90;;;;;;5088956;28;20214;-52
2022/11/23 01:33:22;;;;;;;614.83;115.97;;;7.00;99.90;;;;;;5088382;28;20859;-53
2022/11/23 01:35:50;;;;;;;223.20;70.43;;;7.00;99.90;;;;;;5088207;28;20319;-53
2022/11/23 01:38:18;;;;;;;1028.67;200.00;;;7.00;99.90;;;;;;5088745;28;20770;-52
2022/11/23 01:40:46;;;;;;;985.70;200.67;;;6.90;99.90;;;;;;5088616;28;20311;-53
2022/11/23 01:43:15;;;;;;;567.43;165.13;;;6.90;99.90;;;;;;5088768;28;20211;-52
2022/11/23 01:45:45;;;;;;;1154.73;264.47;;;6.90;99.90;;;;;;5089036;28;20588;-51
2022/11/23 01:48:19;;;;;;;349.77;81.73;;;6.90;99.90;;;;;;5075692;28;20204;-51
2022/11/23 01:50:51;;;;;;;1999.90;549.70;;;7.00;99.90;;;;;;5072548;28;20206;-53
2022/11/23 01:53:20;;;;;;;467.43;91.57;;;6.90;99.90;;;;;;5070983;28;20301;-53
2022/11/23 01:55:49;;;;;;;210.10;65.23;;;6.90;99.90;;;;;;5068228;28;20312;-52
2022/11/23 01:58:20;;;;;;;658.40;160.07;;;7.00;99.90;;;;;;5068566;28;20288;-52
2022/11/23 02:00:49;;;;;;;1330.37;237.33;;;7.00;99.90;;;;;;5068816;28;20225;-53
2022/11/23 02:03:19;;;;;;;677.93;100.77;;;7.00;99.90;;;;;;5067618;28;20216;-53
2022/11/23 02:05:51;;;;;;;294.73;59.80;;;7.00;99.90;;;;;;5067985;28;20307;-53
2022/11/23 02:08:20;;;;;;;968.60;166.23;;;7.00;99.90;;;;;;5068382;28;20549;-53
2022/11/23 02:10:48;;;;;;;607.17;127.00;;;7.00;99.90;;;;;;5071685;28;20711;-51
2022/11/23 02:13:16;;;;;;;1405.40;275.37;;;7.00;99.90;;;;;;5071488;28;20319;-51
2022/11/23 02:15:44;;;;;;;884.23;171.97;;;7.00;99.90;;;;;;5072155;28;20312;-52
2022/11/23 02:18:16;;;;;;;225.80;78.80;;;7.00;99.90;;;;;;5072099;28;20240;-52
2022/11/23 02:20:46;;;;;;;1972.03;374.03;;;7.00;99.90;;;;;;5059876;28;20335;-51
2022/11/23 02:23:29;;;;;;;415.40;75.90;;;7.00;99.90;;;;;;5065923;28;20205;-52
2022/11/23 02:26:02;;;;;;;916.13;153.13;;;7.00;99.90;;;;;;5059426;28;20232;-51
2022/11/23 02:28:35;;;;;;;292.70;67.83;;;7.00;99.90;;;;;;5071641;28;20691;-52
2022/11/23 02:31:03;;;;;;;1336.47;235.80;;;7.00;99.90;;;;;;5071358;28;20904;-52
2022/11/23 02:33:31;;;;;;;655.07;174.50;;;7.00;99.90;;;;;;5071148;28;20295;-53
2022/11/23 02:36:01;;;;;;;1799.57;258.80;;;7.00;99.90;;;;;;5071087;28;20316;-52
2022/11/23 02:38:33;;;;;;;149.07;37.60;;;6.90;99.90;;;;;;5072079;28;20216;-52
2022/11/23 02:41:02;;;;;;;293.60;78.93;;;6.90;99.90;;;;;;5071053;28;20282;-52
2022/11/23 02:43:30;;;;;;;443.43;103.87;;;7.00;99.90;;;;;;5071061;28;20215;-53
2022/11/23 02:46:01;;;;;;;388.30;75.13;;;7.00;99.90;;;;;;5071442;28;20232;-52
2022/11/23 02:48:29;;;;;;;675.30;188.00;;;7.00;99.90;;;;;;5071469;28;20296;-52
2022/11/23 02:50:57;;;;;;;382.37;82.60;;;7.00;99.90;;;;;;5071364;28;20239;-53
2022/11/23 02:53:26;;;;;;;154.63;49.37;;;7.00;99.90;;;;;;5066917;28;20247;-52
2022/11/23 02:55:54;;;;;;;550.93;141.50;;;7.00;99.90;;;;;;5070688;28;20227;-52
2022/11/23 02:58:23;;;;;;;204.73;58.53;;;7.00;99.90;;;;;;5071474;28;20259;-52
2022/11/23 03:00:51;;;;;;;356.03;85.37;;;6.90;99.90;;;;;;5071054;28;20715;-52
2022/11/23 03:03:19;;;;;;;1004.90;179.33;;;6.90;99.90;;;;;;5071120;28;20538;-52
2022/11/23 03:05:47;;;;;;;539.33;97.93;;;6.90;99.90;;;;;;5070756;28;20239;-52
2022/11/23 03:08:15;;;;;;;716.93;131.77;;;6.90;99.90;;;;;;5071162;28;20570;-53
2022/11/23 03:10:44;;;;;;;216.60;51.20;;;6.90;99.90;;;;;;5071218;28;20212;-52
2022/11/23 03:13:12;;;;;;;607.33;115.43;;;6.90;99.90;;;;;;5069670;28;20910;-52
2022/11/23 03:15:42;;;;;;;50.73;29.53;;;6.90;99.90;;;;;;5071358;28;20320;-52
2022/11/23 03:18:10;;;;;;;1579.23;312.63;;;6.90;99.90;;;;;;5070152;28;20217;-53
2022/11/23 03:20:38;;;;;;;1146.07;196.57;;;6.90;99.90;;;;;;5070224;28;20285;-53
2022/11/23 03:23:06;;;;;;;455.10;86.40;;;6.90;99.90;;;;;;5070493;28;20586;-52
2022/11/23 03:25:34;;;;;;;1212.83;302.20;;;6.90;99.90;;;;;;5070683;28;20229;-53
2022/11/23 03:28:02;;;;;;;1999.90;743.77;;;6.90;99.90;;;;;;5071047;28;20745;-52
2022/11/23 03:30:30;;;;;;;306.10;87.13;;;6.90;99.90;;;;;;5060801;28;20212;-52
2022/11/23 03:33:00;;;;;;;183.43;65.30;;;6.80;99.90;;;;;;5070211;28;20303;-52
2022/11/23 03:35:28;;;;;;;916.50;158.53;;;6.80;99.90;;;;;;5069095;28;20981;-52
2022/11/23 03:37:56;;;;;;;203.87;60.83;;;6.90;99.90;;;;;;5070291;28;21089;-53
2022/11/23 03:40:24;;;;;;;229.23;64.67;;;6.90;99.90;;;;;;5070365;28;20326;-52
2022/11/23 03:42:52;;;;;;;805.80;202.30;;;6.90;99.90;;;;;;5069475;28;20292;-52
2022/11/23 03:45:20;;;;;;;388.93;99.33;;;7.00;99.90;;;;;;5070335;28;20311;-52
2022/11/23 03:47:48;;;;;;;254.57;87.43;;;7.00;99.90;;;;;;5070007;28;20292;-53
2022/11/23 03:50:17;;;;;;;650.60;118.67;;;7.00;99.90;;;;;;5070146;28;20212;-52
2022/11/23 03:52:48;;;;;;;665.67;106.87;;;7.00;99.90;;;;;;5069921;28;20614;-51
2022/11/23 03:55:16;;;;;;;108.83;48.20;;;7.00;99.90;;;;;;5069631;28;20309;-52
2022/11/23 03:57:44;;;;;;;54.87;32.23;;;7.00;99.90;;;;;;5070117;28;20659;-53
2022/11/23 04:00:13;;;;;;;490.97;81.40;;;7.00;99.90;;;;;;5070082;28;20234;-53
2022/11/23 04:02:42;;;;;;;381.73;79.10;;;7.00;99.90;;;;;;5069843;28;20291;-52
2022/11/23 04:05:10;;;;;;;1115.07;219.00;;;7.00;99.90;;;;;;5068639;28;20228;-52
2022/11/23 04:07:39;;;;;;;668.93;106.53;;;7.00;99.90;;;;;;5069342;28;20304;-51
2022/11/23 04:10:09;;;;;;;172.13;44.20;;;7.00;99.90;;;;;;5056189;28;20213;-53
2022/11/23 04:12:37;;;;;;;450.83;81.47;;;6.90;99.90;;;;;;5069742;28;20209;-53
2022/11/23 04:15:06;;;;;;;790.20;184.90;;;6.90;99.90;;;;;;5069721;28;20238;-52
2022/11/23 04:17:34;;;;;;;1999.90;348.40;;;6.90;99.90;;;;;;5069909;28;20295;-52
2022/11/23 04:20:02;;;;;;;1334.87;221.90;;;6.90;99.90;;;;;;5069307;28;20213;-52
2022/11/23 04:22:30;;;;;;;245.13;56.50;;;6.90;99.90;;;;;;5069223;28;20205;-52
2022/11/23 04:24:59;;;;;;;422.50;78.77;;;6.90;99.90;;;;;;5068801;28;20256;-53
2022/11/23 04:27:27;;;;;;;168.27;48.97;;;6.90;99.90;;;;;;5070002;28;20297;-52
2022/11/23 04:29:55;;;;;;;1259.83;201.67;;;6.90;99.90;;;;;;5069389;28;20259;-53
2022/11/23 04:32:23;;;;;;;104.60;33.83;;;6.90;99.90;;;;;;5068585;28;20211;-53
2022/11/23 04:34:51;;;;;;;73.57;36.27;;;6.90;99.90;;;;;;5067225;28;20233;-53
2022/11/23 04:37:19;;;;;;;205.97;50.90;;;7.00;99.90;;;;;;5069705;28;20215;-53
2022/11/23 04:39:47;;;;;;;772.10;177.67;;;6.90;99.90;;;;;;5069238;28;20216;-53
2022/11/23 04:42:17;;;;;;;133.23;42.70;;;6.90;99.90;;;;;;5068796;28;20307;-53
2022/11/23 04:44:45;;;;;;;287.60;83.27;;;7.00;99.90;;;;;;5069063;28;20231;-53
2022/11/23 04:47:13;;;;;;;876.40;133.70;;;6.90;99.90;;;;;;5069264;28;20295;-53
2022/11/23 04:49:41;;;;;;;150.53;49.87;;;6.90;99.90;;;;;;5060259;28;20288;-53
2022/11/23 04:52:10;;;;;;;1680.93;307.80;;;6.90;99.90;;;;;;5065099;28;20653;-52
2022/11/23 04:54:38;;;;;;;1405.13;283.87;;;6.80;99.90;;;;;;5069104;28;20663;-55
2022/11/23 04:57:06;;;;;;;597.40;142.20;;;6.80;99.90;;;;;;5067931;28;20291;-53
2022/11/23 04:59:35;;;;;;;609.27;125.77;;;6.90;99.90;;;;;;5079279;28;20204;-52
2022/11/23 05:02:03;;;;;;;1567.17;298.20;;;6.80;99.90;;;;;;5066167;28;20227;-52
2022/11/23 05:04:33;;;;;;;1999.90;466.90;;;6.80;99.90;;;;;;5068518;28;20320;-53
2022/11/23 05:07:01;;;;;;;1374.43;215.50;;;6.80;99.90;;;;;;5066997;28;20869;-52
2022/11/23 05:09:29;;;;;;;1190.30;238.60;;;6.90;99.90;;;;;;5068753;28;20649;-53
2022/11/23 05:11:58;;;;;;;318.87;78.57;;;6.90;99.90;;;;;;5073946;28;20215;-53
2022/11/23 05:14:26;;;;;;;505.67;117.67;;;6.80;99.90;;;;;;5062529;28;20246;-52
2022/11/23 05:16:55;;;;;;;559.87;129.10;;;6.90;99.90;;;;;;5062565;28;20204;-52
2022/11/23 05:19:23;;;;;;;1999.90;495.70;;;6.90;99.90;;;;;;5061896;28;20205;-52
2022/11/23 05:21:51;;;;;;;932.13;182.23;;;6.80;99.90;;;;;;5072740;28;20697;-53
2022/11/23 05:24:19;;;;;;;972.90;156.83;;;6.90;99.90;;;;;;5067878;28;20320;-52
2022/11/23 05:26:47;;;;;;;1020.60;205.33;;;6.80;99.90;;;;;;5067789;28;20301;-52
2022/11/23 05:29:22;;;;;;;1999.90;409.20;;;6.80;99.90;;;;;;5068520;28;20230;-52
2022/11/23 05:31:50;;;;;;;1999.90;332.23;;;6.80;99.90;;;;;;5068550;28;20286;-52
2022/11/23 05:34:20;;;;;;;1999.90;378.17;;;6.80;99.90;;;;;;5068319;28;20243;-53
2022/11/23 05:36:48;;;;;;;1801.70;302.57;;;6.80;99.90;;;;;;5067640;28;20765;-53
2022/11/23 05:39:16;;;;;;;1020.07;211.80;;;6.80;99.90;;;;;;5068485;28;20576;-52
2022/11/23 05:41:44;;;;;;;743.87;144.30;;;6.80;99.90;;;;;;5067692;28;20223;-52
2022/11/23 05:44:12;;;;;;;1640.63;296.27;;;6.80;99.90;;;;;;5070383;28;20231;-52
2022/11/23 05:46:40;;;;;;;175.40;54.10;;;6.80;99.90;;;;;;5064940;28;20240;-52
2022/11/23 05:49:09;;;;;;;574.57;116.10;;;6.80;99.90;;;;;;5068968;28;20717;-53
2022/11/23 05:51:39;;;;;;;911.33;206.53;;;6.80;99.90;;;;;;5067188;28;20203;-53
2022/11/23 05:54:07;;;;;;;1244.30;169.43;;;6.90;99.90;;;;;;5071387;28;20199;-52
2022/11/23 05:56:35;;;;;;;487.93;107.07;;;6.80;99.90;;;;;;5074678;28;20291;-52
2022/11/23 05:59:07;;;;;;;972.97;179.57;;;6.80;99.90;;;;;;5075722;28;20225;-53
2022/11/23 06:01:35;;;;;;;1999.90;392.67;;;6.90;99.90;;;;;;5061808;28;20605;-53
2022/11/23 06:04:05;;;;;;;1999.90;374.87;;;6.90;99.90;;;;;;5069347;28;20757;-52
2022/11/23 06:06:33;;;;;;;198.57;65.10;;;6.80;99.90;;;;;;5069577;28;20208;-53
2022/11/23 06:09:03;;;;;;;709.33;140.40;;;6.90;99.90;;;;;;5078647;28;20204;-51
2022/11/23 06:11:31;;;;;;;518.97;106.40;;;6.90;99.90;;;;;;5073214;28;20204;-52
2022/11/23 06:13:59;;;;;;;1007.23;174.93;;;6.90;99.90;;;;;;5070739;28;20729;-53
2022/11/23 06:16:27;;;;;;;511.93;100.70;;;6.90;99.90;;;;;;5070613;28;20216;-52
2022/11/23 06:18:55;;;;;;;922.73;169.17;;;6.90;99.90;;;;;;5072043;28;20240;-52
2022/11/23 06:21:23;;;;;;;1825.17;322.40;;;6.90;99.90;;;;;;5070439;28;20235;-52
2022/11/23 06:23:52;;;;;;;415.00;81.10;;;6.90;99.90;;;;;;5071252;28;20299;-52
2022/11/23 06:26:21;;;;;;;1019.93;190.67;;;6.90;99.90;;;;;;5069781;28;20311;-52
2022/11/23 06:28:49;;;;;;;1249.43;231.00;;;6.90;99.90;;;;;;5066729;28;20309;-53
2022/11/23 06:31:17;;;;;;;491.80;123.67;;;6.90;99.90;;;;;;5069991;28;20307;-53
2022/11/23 06:33:45;;;;;;;1271.60;201.10;;;6.80;99.90;;;;;;5068474;28;20290;-52
2022/11/23 06:36:14;;;;;;;1214.60;168.40;;;6.80;99.90;;;;;;5068625;28;20464;-52
2022/11/23 06:38:42;;;;;;;728.27;106.63;;;6.90;99.90;;;;;;5061110;28;20288;-51
2022/11/23 06:41:10;;;;;;;1468.07;240.77;;;6.90;99.90;;;;;;5066424;28;20329;-52
2022/11/23 06:43:40;;;;;;;494.60;88.03;;;6.80;99.90;;;;;;5069169;28;20302;-54
2022/11/23 06:46:08;;;;;;;1745.80;281.07;;;6.90;99.90;;;;;;5070217;28;20679;-51
2022/11/23 06:48:37;;;;;;;1337.83;206.53;;;6.90;99.90;;;;;;5066581;28;20310;-52
2022/11/23 06:51:05;;;;;;;667.80;141.57;;;6.80;99.90;;;;;;5069356;28;20304;-51
2022/11/23 06:53:33;;;;;;;1999.90;304.17;;;6.90;99.90;;;;;;5069662;28;20208;-53
2022/11/23 06:56:01;;;;;;;1102.23;219.80;;;6.90;99.90;;;;;;5063228;28;20332;-52
2022/11/23 06:58:29;;;;;;;393.53;85.63;;;6.90;99.90;;;;;;5070251;28;20300;-52
2022/11/23 07:01:02;;;;;;;1768.73;327.80;;;6.90;99.90;;;;;;5071172;28;20299;-52
2022/11/23 07:03:30;;;;;;;761.80;162.77;;;6.90;99.90;;;;;;5062095;28;20222;-52
2022/11/23 07:05:59;;;;;;;564.30;113.80;;;6.90;99.90;;;;;;5063921;28;20307;-53
2022/11/23 07:08:27;;;;;;;1025.27;187.67;;;6.90;99.90;;;;;;5063980;28;20291;-52
2022/11/23 07:11:00;;;;;;;590.57;121.10;;;6.90;99.90;;;;;;5069708;28;20291;-52
2022/11/23 07:13:28;;;;;;;133.13;38.27;;;7.00;99.90;;;;;;5058723;28;20199;-52
2022/11/23 07:15:58;;;;;;;323.37;115.50;;;7.00;99.90;;;;;;5063142;28;20315;-53
2022/11/23 07:18:27;;;;;;;300.67;91.27;;;7.00;99.90;;;;;;5069436;28;20205;-52
2022/11/23 07:20:58;;;;;;;124.10;49.23;;;7.10;99.90;;;;;;5064516;28;20234;-53
2022/11/23 07:23:26;;;;;;;1233.87;226.00;;;7.00;99.90;;;;;;5066250;28;20231;-52
2022/11/23 07:25:54;;;;;;;920.50;180.87;;;7.00;99.90;;;;;;5060278;28;20240;-51
2022/11/23 07:28:22;;;;;;;558.97;101.13;;;6.90;99.90;;;;;;5069851;28;20665;-53
2022/11/23 07:30:51;;;;;;;707.67;151.93;;;7.00;99.90;;;;;;5068456;28;20298;-52
2022/11/23 07:33:19;;;;;;;1245.83;200.77;;;7.00;99.90;;;;;;5066921;28;20666;-54
2022/11/23 07:35:49;;;;;;;207.20;63.20;;;7.00;99.90;;;;;;5072780;28;20251;-51
2022/11/23 07:38:17;;;;;;;1129.53;281.90;;;7.00;99.90;;;;;;5068593;28;20215;-53
2022/11/23 07:40:49;;;;;;;309.43;53.50;;;7.00;99.90;;;;;;5066736;28;20209;-53
2022/11/23 07:43:17;;;;;;;382.30;84.97;;;7.00;99.90;;;;;;5064002;28;20224;-52
2022/11/23 07:45:45;;;;;;;888.13;225.37;;;7.10;99.90;;;;;;5067585;28;20361;-53
2022/11/23 07:48:13;;;;;;;413.53;100.70;;;7.00;99.90;;;;;;5061740;28;20289;-52
2022/11/23 07:50:41;;;;;;;289.20;73.63;;;7.10;99.90;;;;;;5069149;28;20287;-53
2022/11/23 07:53:11;;;;;;;454.73;93.77;;;7.10;99.90;;;;;;5068005;28;20206;-53
2022/11/23 07:55:39;;;;;;;585.07;151.67;;;7.20;99.90;;;;;;5066950;28;20374;-52
2022/11/23 07:58:07;;;;;;;105.80;40.70;;;7.20;99.90;;;;;;5070942;28;20212;-52
2022/11/23 08:00:35;;;;;;;684.67;147.67;;;7.20;99.90;;;;;;5069628;28;20299;-52
2022/11/23 08:03:04;;;;;;;1729.90;316.87;;;7.20;99.90;;;;;;5069101;28;20220;-52
2022/11/23 08:05:52;;;;;;;981.17;168.83;;;7.20;99.90;;;;;;5066226;28;20228;-52
2022/11/23 08:08:21;;;;;;;411.83;99.23;;;7.20;99.90;;;;;;5068802;28;20291;-53
2022/11/23 08:10:49;;;;;;;743.23;161.80;;;7.20;99.90;;;;;;5068664;28;20208;-52
2022/11/23 08:13:21;;;;;;;791.90;182.23;;;7.20;99.90;;;;;;5068552;28;20220;-51
2022/11/23 08:15:50;;;;;;;684.53;159.97;;;7.20;99.90;;;;;;5068309;28;20311;-52
2022/11/23 08:18:23;;;;;;;373.60;95.87;;;7.20;99.90;;;;;;5068921;28;20223;-53
2022/11/23 08:20:51;;;;;;;1478.03;276.27;;;7.20;99.90;;;;;;5062850;28;20291;-52
2022/11/23 08:23:21;;;;;;;1999.90;537.13;;;7.20;99.90;;;;;;5067904;28;20257;-53
2022/11/23 08:25:49;;;;;;;785.90;147.00;;;7.20;99.90;;;;;;5068324;28;20319;-52
2022/11/23 08:28:18;;;;;;;467.00;118.10;;;7.20;99.90;;;;;;5068003;28;20287;-52
2022/11/23 08:30:46;;;;;;;859.53;147.43;;;7.20;99.90;;;;;;5068184;28;20216;-52
2022/11/23 08:33:15;;;;;;;1063.83;218.60;;;7.20;99.90;;;;;;5068337;28;20845;-52
2022/11/23 08:35:43;;;;;;;986.07;175.67;;;7.20;99.90;;;;;;5067441;28;20235;-53
2022/11/23 08:38:13;;;;;;;716.70;199.97;;;7.30;99.90;;;;;;5068774;28;20245;-54
2022/11/23 08:40:42;;;;;;;539.17;142.03;;;7.30;99.90;;;;;;5063235;28;20292;-53
2022/11/23 08:43:10;;;;;;;929.60;156.77;;;7.30;99.90;;;;;;5068177;28;20345;-52
2022/11/23 08:45:38;;;;;;;446.70;147.37;;;7.30;99.90;;;;;;5059631;28;20231;-52
2022/11/23 08:48:07;;;;;;;212.70;72.33;;;7.40;99.90;;;;;;5067844;28;20706;-53
2022/11/23 08:50:36;;;;;;;378.07;100.00;;;7.40;99.90;;;;;;5067659;28;20750;-52
2022/11/23 08:53:04;;;;;;;562.77;128.73;;;7.40;99.90;;;;;;5068320;28;20224;-53
2022/11/23 08:55:32;;;;;;;598.83;157.57;;;7.50;99.90;;;;;;5067609;28;20286;-52
2022/11/23 08:58:02;;;;;;;1391.80;250.40;;;7.50;99.90;;;;;;5068428;28;20216;-53
2022/11/23 09:00:30;;;;;;;551.40;124.00;;;7.40;99.90;;;;;;5068713;28;20288;-52
2022/11/23 09:02:58;;;;;;;740.27;170.73;;;7.50;99.90;;;;;;5068934;28;20225;-54
2022/11/23 09:05:27;;;;;;;1132.53;285.23;;;7.50;99.90;;;;;;5067958;28;20241;-53
2022/11/23 09:07:56;;;;;;;1999.90;432.20;;;7.50;99.90;;;;;;5062932;28;20308;-52
2022/11/23 09:10:24;;;;;;;1432.03;303.67;;;7.60;99.90;;;;;;5059422;28;20209;-53
2022/11/23 09:12:52;;;;;;;1834.93;371.60;;;7.50;99.90;;;;;;5067401;28;20216;-52
2022/11/23 09:15:21;;;;;;;920.77;199.40;;;7.50;99.90;;;;;;5068572;28;20331;-52
2022/11/23 09:17:50;;;;;;;573.30;159.37;;;7.60;99.90;;;;;;5066751;28;20205;-52
2022/11/23 09:20:18;;;;;;;1343.07;255.10;;;7.70;99.90;;;;;;5065374;28;20243;-52
2022/11/23 09:22:52;;;;;;;1752.57;266.83;;;7.80;99.90;;;;;;5063816;28;20208;-52
2022/11/23 09:25:20;;;;;;;538.57;118.93;;;7.80;99.90;;;;;;5068001;28;20247;-52
2022/11/23 09:27:49;;;;;;;718.50;150.50;;;7.80;99.90;;;;;;5067111;28;20282;-52
2022/11/23 09:30:18;;;;;;;1999.90;413.50;;;7.90;99.90;;;;;;5068163;28;20205;-52
2022/11/23 09:32:47;;;;;;;1417.00;339.77;;;7.80;99.90;;;;;;5064531;28;20197;-52
2022/11/23 09:35:15;;;;;;;1998.17;409.97;;;7.80;99.90;;;;;;5066050;28;20267;-51
2022/11/23 09:37:43;;;;;;;1999.90;420.20;;;7.90;99.90;;;;;;5063126;28;20288;-53
2022/11/23 09:40:16;;;;;;;1999.90;393.93;;;7.80;99.90;;;;;;5067830;28;20209;-52
2022/11/23 09:43:05;;;;;;;1999.90;483.40;;;7.90;99.90;;;;;;5067216;28;20205;-52
2022/11/23 09:45:40;;;;;;;1606.30;323.47;;;7.90;99.90;;;;;;5067052;28;20662;-52
2022/11/23 09:48:28;;;;;;;1999.90;448.50;;;7.90;99.90;;;;;;5067518;28;20219;-52
2022/11/23 09:51:01;;;;;;;1867.40;335.07;;;7.90;99.90;;;;;;5068622;28;20647;-51
2022/11/23 09:53:34;;;;;;;1999.90;465.30;;;7.90;99.90;;;;;;5066985;28;20292;-52
2022/11/23 09:56:02;;;;;;;1525.83;321.17;;;8.00;99.90;;;;;;5062634;28;20677;-52
2022/11/23 09:58:36;;;;;;;1999.90;384.90;;;8.00;99.90;;;;;;5067498;28;20204;-52
2022/11/23 10:01:07;;;;;;;1999.90;517.27;;;8.00;99.90;;;;;;5068632;28;20263;-52
2022/11/23 10:03:39;;;;;;;1258.90;244.20;;;8.00;99.90;;;;;;5066715;28;20225;-51
2022/11/23 10:06:19;;;;;;;1999.90;492.67;;;8.10;99.90;;;;;;5067952;28;20236;-53
2022/11/23 10:08:58;;;;;;;1948.97;325.77;;;8.20;99.90;;;;;;5064954;28;20713;-53
2022/11/23 10:11:40;;;;;;;1999.90;491.57;;;8.10;99.90;;;;;;5067704;28;20736;-51
2022/11/23 10:14:23;;;;;;;621.63;148.20;;;8.10;99.90;;;;;;5066915;28;20258;-50
2022/11/23 10:16:59;;;;;;;1788.97;299.17;;;8.00;99.90;;;;;;5067874;28;20268;-50
2022/11/23 10:19:39;;;;;;;1999.90;470.20;;;8.10;99.90;;;;;;5058723;28;20571;-52
2022/11/23 10:22:16;;;;;;;1492.17;290.03;;;8.10;99.90;;;;;;5054901;28;20288;-53
2022/11/23 10:24:49;;;;;;;1577.80;347.43;;;8.10;99.90;;;;;;5056406;28;20264;-52
2022/11/23 10:27:19;;;;;;;1999.90;582.93;;;8.10;99.90;;;;;;5066000;28;20282;-52
2022/11/23 10:29:48;;;;;;;1999.90;431.33;;;8.10;99.90;;;;;;5067570;28;20201;-53
2022/11/23 10:32:26;;;;;;;741.67;175.10;;;8.20;99.90;;;;;;5066691;28;20292;-53
2022/11/23 10:35:03;;;;;;;1768.47;370.57;;;8.20;99.90;;;;;;5070170;28;20273;-53
2022/11/23 10:37:33;;;;;;;1728.77;353.77;;;8.20;99.90;;;;;;5071106;28;20251;-53
2022/11/23 10:40:01;;;;;;;1999.90;485.50;;;8.10;99.90;;;;;;5069180;28;20215;-52
2022/11/23 10:42:33;;;;;;;1159.53;246.63;;;8.10;99.90;;;;;;5070727;28;20209;-51
2022/11/23 10:45:03;;;;;;;1766.47;403.37;;;8.00;99.90;;;;;;5070279;28;20316;-52
2022/11/23 10:47:38;;;;;;;1999.90;477.30;;;8.00;99.90;;;;;;5069040;28;20660;-53
2022/11/23 10:50:24;;;;;;;1908.67;441.93;;;8.00;99.90;;;;;;5070675;28;20213;-52
2022/11/23 10:52:55;;;;;;;1999.90;413.10;;;8.10;99.90;;;;;;5070572;28;20211;-52
2022/11/23 10:55:30;;;;;;;1700.23;289.30;;;8.20;99.90;;;;;;5069819;28;20623;-53
2022/11/23 10:57:58;;;;;;;1999.90;512.10;;;8.30;99.90;;;;;;5070126;28;20291;-53
2022/11/23 11:00:28;;;;;;;1999.90;461.40;;;8.40;99.90;;;;;;5068771;28;20940;-53
2022/11/23 11:03:02;;;;;;;1897.93;405.40;;;8.40;99.90;;;;;;5068529;28;20783;-53
2022/11/23 11:05:33;;;;;;;1779.53;344.60;;;8.40;99.90;;;;;;5064727;28;20235;-53
2022/11/23 11:08:25;;;;;;;1999.90;524.33;;;8.60;99.90;;;;;;5068764;28;20218;-52
2022/11/23 11:10:59;;;;;;;1999.90;514.20;;;8.60;99.90;;;;;;5066397;28;20291;-53
2022/11/23 11:13:30;;;;;;;906.27;229.57;;;8.60;99.90;;;;;;5067748;28;20231;-53
2022/11/23 11:16:01;;;;;;;1999.90;638.37;;;8.50;99.90;;;;;;5069518;28;20232;-53
2022/11/23 11:18:32;;;;;;;1999.90;488.37;;;8.40;99.90;;;;;;5070431;28;20998;-52
2022/11/23 11:21:04;;;;;;;1775.67;454.83;;;8.40;99.90;;;;;;5069860;28;20299;-53
2022/11/23 11:23:34;;;;;;;748.17;165.83;;;8.50;99.90;;;;;;5070456;28;20350;-53
2022/11/23 11:26:05;;;;;;;1766.10;467.70;;;8.50;99.90;;;;;;5069397;28;20235;-53
2022/11/23 11:28:37;;;;;;;794.37;202.60;;;8.60;99.90;;;;;;5068832;28;20296;-52
2022/11/23 11:31:23;;;;;;;481.90;132.23;;;8.60;99.90;;;;;;5069218;28;20228;-52
2022/11/23 11:33:56;;;;;;;1999.90;529.53;;;8.80;99.90;;;;;;5069306;28;20248;-52
2022/11/23 11:36:30;;;;;;;1999.90;487.53;;;8.80;99.90;;;;;;5060783;28;20217;-52
2022/11/23 11:39:02;;;;;;;1999.90;613.03;;;8.80;99.90;;;;;;5073080;28;20215;-53
2022/11/23 11:41:49;;;;;;;1332.07;331.83;;;8.80;99.90;;;;;;5065616;28;20218;-54
2022/11/23 11:44:20;;;;;;;1999.90;456.43;;;8.90;99.90;;;;;;5070195;28;20225;-53
2022/11/23 11:46:54;;;;;;;540.00;138.50;;;8.90;99.90;;;;;;5067901;28;20273;-53
2022/11/23 11:49:26;;;;;;;1999.90;479.93;;;8.90;99.90;;;;;;5074834;28;20576;-51
2022/11/23 11:52:04;;;;;;;1999.90;473.90;;;8.90;99.90;;;;;;5064638;28;20291;-52
2022/11/23 11:54:41;;;;;;;1193.73;240.63;;;8.80;99.90;;;;;;5071855;28;20269;-53
2022/11/23 11:57:19;;;;;;;1999.90;405.80;;;8.80;99.90;;;;;;5067172;28;20210;-52
2022/11/23 11:59:51;;;;;;;1999.90;634.90;;;8.70;99.90;;;;;;5069432;28;20293;-53
2022/11/23 12:02:23;;;;;;;1999.90;533.80;;;8.70;99.90;;;;;;5068740;28;20574;-53
2022/11/23 12:05:02;;;;;;;1412.97;374.53;;;8.70;99.90;;;;;;5068075;28;20699;-53
2022/11/23 12:07:36;;;;;;;1399.80;247.47;;;8.80;99.90;;;;;;5068717;28;20221;-53
2022/11/23 12:10:12;;;;;;;1247.13;280.60;;;8.80;99.90;;;;;;5068949;28;20288;-52
2022/11/23 12:12:41;;;;;;;1492.30;394.57;;;8.90;99.90;;;;;;5056947;28;20205;-52
2022/11/23 12:15:18;;;;;;;1999.90;670.57;;;8.90;99.90;;;;;;5069540;28;20326;-52
2022/11/23 12:18:46;;;;;;;1999.90;465.17;;;8.90;99.90;;;;;;5065771;28;20213;-53
2022/11/23 12:21:44;;;;;;;1999.90;444.30;;;8.90;99.90;;;;;;5067675;28;20684;-53
2022/11/23 12:24:26;;;;;;;1813.57;422.17;;;8.90;99.90;;;;;;5056585;28;20252;-53
2022/11/23 12:27:04;;;;;;;1999.90;462.47;;;8.90;99.90;;;;;;5063460;28;20204;-53
2022/11/23 12:29:44;;;;;;;1999.90;598.13;;;8.90;99.90;;;;;;5067061;28;20320;-53
2022/11/23 12:32:23;;;;;;;1999.90;807.67;;;8.90;99.90;;;;;;5055306;28;20579;-52